Time,TemperatureF,DewpointF,PressureIn,WindDirection,WindDirectionDegrees,WindSpeedMPH,WindSpeedGustMPH,Humidity,HourlyPrecipIn,Conditions,Clouds,dailyrainin,SoftwareType,DateUTC
2013-09-30 00:23:00,55.0,47.0,30.15,SSW,202,5.0,5.0,74,-99.99,,,-99.99,,2013-09-30 05:23:00,
2013-09-30 00:52:00,55.0,48.0,30.14,SSE,157,3.0,5.0,77,-99.99,,,-99.99,,2013-09-30 05:52:00,
2013-09-30 01:22:00,55.0,48.0,30.13,South,180,13.0,13.0,77,-99.99,,,-99.99,,2013-09-30 06:22:00,
2013-09-30 01:52:00,55.0,47.0,30.13,South,180,5.0,7.0,73,-99.99,,,-99.99,,2013-09-30 06:52:00,
2013-09-30 02:12:00,55.0,46.0,30.13,SSE,157,2.0,6.0,72,-99.99,,,-99.99,,2013-09-30 07:12:00,
2013-09-30 02:22:00,55.0,46.0,30.13,SSE,157,2.0,6.0,72,-99.99,,,-99.99,,2013-09-30 07:22:00,
2013-09-30 02:53:00,55.0,46.0,30.12,SSE,157,0.0,3.0,71,-99.99,,,-99.99,,2013-09-30 07:53:00,
2013-09-30 03:22:00,53.0,44.0,30.12,SSE,157,0.0,1.0,72,-99.99,,,-99.99,,2013-09-30 08:22:00,
2013-09-30 03:52:00,53.0,45.0,30.12,SSE,157,5.0,5.0,75,-99.99,,,-99.99,,2013-09-30 08:52:00,
2013-09-30 04:22:00,53.0,46.0,30.12,SSE,157,4.0,5.0,76,-99.99,,,-99.99,,2013-09-30 09:22:00,
2013-09-30 04:53:00,53.0,46.0,30.13,SE,135,0.0,3.0,76,-99.99,,,-99.99,,2013-09-30 09:53:00,
2013-09-30 05:23:00,52.0,45.0,30.10,SSE,157,0.0,7.0,76,-99.99,,,-99.99,,2013-09-30 10:23:00,
2013-09-30 05:53:00,51.0,44.0,30.10,SE,135,0.0,0.0,76,-99.99,,,-99.99,,2013-09-30 10:53:00,
2013-09-30 06:22:00,51.0,44.0,30.10,SSE,157,0.0,3.0,77,-99.99,,,-99.99,,2013-09-30 11:22:00,
2013-09-30 06:52:00,51.0,44.0,30.10,SSE,157,6.0,6.0,77,-99.99,,,-99.99,,2013-09-30 11:52:00,
2013-09-30 07:22:00,51.0,44.0,30.10,SSE,157,3.0,3.0,77,-99.99,,,-99.99,,2013-09-30 12:22:00,
2013-09-30 07:52:00,51.0,44.0,30.08,SE,135,3.0,3.0,77,-99.99,,,-99.99,,2013-09-30 12:52:00,
2013-09-30 08:22:00,52.0,45.0,30.09,South,180,3.0,3.0,76,-99.99,,,-99.99,,2013-09-30 13:22:00,
2013-09-30 08:52:00,54.0,46.0,30.08,South,180,11.0,13.0,73,-99.99,,,-99.99,,2013-09-30 13:52:00,
2013-09-30 09:22:00,57.0,48.0,30.08,South,180,2.0,8.0,72,-99.99,,,-99.99,,2013-09-30 14:22:00,
2013-09-30 09:53:00,58.0,49.0,30.08,SSW,202,8.0,9.0,71,-99.99,,,-99.99,,2013-09-30 14:53:00,
2013-09-30 10:23:00,61.0,50.0,30.08,South,180,9.0,16.0,66,-99.99,,,-99.99,,2013-09-30 15:23:00,
2013-09-30 10:54:00,64.0,51.0,30.07,SE,135,7.0,15.0,63,-99.99,,,-99.99,,2013-09-30 15:54:00,
2013-09-30 11:24:00,66.0,51.0,30.06,SSE,157,4.0,18.0,59,-99.99,,,-99.99,,2013-09-30 16:24:00,
2013-09-30 11:53:00,67.0,51.0,30.05,South,180,19.0,23.0,57,-99.99,,,-99.99,,2013-09-30 16:53:00,
2013-09-30 12:13:00,68.0,51.0,30.05,SSE,157,7.0,19.0,55,-99.99,,,-99.99,,2013-09-30 17:13:00,
2013-09-30 12:22:00,68.0,51.0,30.05,SSE,157,7.0,19.0,55,-99.99,,,-99.99,,2013-09-30 17:22:00,
2013-09-30 12:53:00,70.0,50.0,30.04,SE,135,7.0,24.0,49,-99.99,,,-99.99,,2013-09-30 17:53:00,
2013-09-30 13:02:00,70.0,50.0,30.04,SE,135,7.0,24.0,49,-99.99,,,-99.99,,2013-09-30 18:02:00,
2013-09-30 13:22:00,71.0,51.0,30.03,South,180,7.0,26.0,49,-99.99,,,-99.99,,2013-09-30 18:22:00,
2013-09-30 13:53:00,72.0,50.0,30.02,South,180,16.0,26.0,46,-99.99,,,-99.99,,2013-09-30 18:53:00,
2013-09-30 14:22:00,73.0,51.0,30.00,SSE,157,14.0,17.0,46,-99.99,,,-99.99,,2013-09-30 19:22:00,
2013-09-30 14:53:00,72.0,50.0,29.99,SSW,202,15.0,20.0,46,-99.99,,,-99.99,,2013-09-30 19:53:00,
2013-09-30 15:23:00,73.0,51.0,29.97,SW,225,15.0,15.0,46,-99.99,,,-99.99,,2013-09-30 20:23:00,
2013-09-30 15:53:00,73.0,50.0,29.97,South,180,16.0,16.0,45,-99.99,,,-99.99,,2013-09-30 20:53:00,
2013-09-30 16:22:00,73.0,50.0,29.96,South,180,22.0,23.0,45,-99.99,,,-99.99,,2013-09-30 21:22:00,
2013-09-30 16:54:00,73.0,50.0,29.95,SSW,202,19.0,19.0,45,-99.99,,,-99.99,,2013-09-30 21:54:00,
2013-09-30 17:13:00,73.0,51.0,29.95,SSE,157,6.0,13.0,46,-99.99,,,-99.99,,2013-09-30 22:13:00,
2013-09-30 17:23:00,73.0,51.0,29.95,SSE,157,6.0,13.0,46,-99.99,,,-99.99,,2013-09-30 22:23:00,
2013-09-30 17:54:00,73.0,50.0,29.94,South,180,15.0,22.0,45,-99.99,,,-99.99,,2013-09-30 22:54:00,
2013-09-30 19:22:00,68.0,48.0,29.93,South,180,3.0,7.0,49,-99.99,,,-99.99,,2013-10-01 00:22:00,
2013-09-30 19:52:00,65.0,48.0,29.94,SSE,157,5.0,5.0,54,-99.99,,,-99.99,,2013-10-01 00:52:00,
2013-09-30 20:21:00,64.0,48.0,29.95,SSE,157,3.0,3.0,57,-99.99,,,-99.99,,2013-10-01 01:21:00,
2013-09-30 20:52:00,62.0,47.0,29.95,South,180,4.0,6.0,59,-99.99,,,-99.99,,2013-10-01 01:52:00,
2013-09-30 21:02:00,62.0,47.0,29.95,South,180,4.0,6.0,59,-99.99,,,-99.99,,2013-10-01 02:02:00,
2013-09-30 21:22:00,62.0,49.0,29.96,South,180,3.0,3.0,62,-99.99,,,-99.99,,2013-10-01 02:22:00,
2013-09-30 21:52:00,62.0,49.0,29.96,South,180,5.0,7.0,63,-99.99,,,-99.99,,2013-10-01 02:52:00,
2013-09-30 22:22:00,62.0,50.0,29.96,SE,135,4.0,7.0,64,-99.99,,,-99.99,,2013-10-01 03:22:00,
2013-09-30 22:55:00,62.0,50.0,29.97,South,180,4.0,5.0,64,-99.99,,,-99.99,,2013-10-01 03:55:00,
2013-09-30 23:14:00,63.0,50.0,29.97,WSW,247,8.0,12.0,63,-99.99,,,-99.99,,2013-10-01 04:14:00,
2013-09-30 23:24:00,63.0,50.0,29.97,WSW,247,8.0,12.0,63,-99.99,,,-99.99,,2013-10-01 04:24:00,